Terminal Aerodrome Forecast
Issued by NWS Wilmington, OH

Home | Current Version | Previous Version | Text Only | Print | Product List | Glossary On
Versions: 1 2 3 4 5 6 7 8 9 10 11 12 13 14 15 16 17 18
426
FTUS41 KILN 251951 AAB
TAFILN
TAF AMD
KILN 251951Z 2520/2618 29006KT P6SM VCTS OVC025CB
      TEMPO 2520/2522 VRB10G25KT 2SM -TSRA BR
     FM260100 28010KT P6SM OVC025
     FM260400 26010KT P6SM BKN040
      TEMPO 2608/2612 4SM BR=

USA.gov is the U.S. government's official web portal to all federal, state and local government web resources and services.